Time,TemperatureF,DewpointF,PressureIn,WindDirection,WindDirectionDegrees,WindSpeedMPH,WindSpeedGustMPH,Humidity,HourlyPrecipIn,Conditions,Clouds,dailyrainin,SolarRadiationWatts/m^2,SoftwareType,DateUTC
2013-03-07 00:02:00,19.0,12.0,-100.00,WNW,303,4.0,12.0,74,0.00,,,0.00,0.000000,,2013-03-07 05:02:00,
2013-03-07 00:32:00,15.0,9.0,-100.00,West,262,1.0,8.0,78,0.00,,,0.00,0.000000,,2013-03-07 05:32:00,
2013-03-07 00:42:00,15.0,9.0,-100.00,West,262,1.0,8.0,78,0.00,,,0.00,0.000000,,2013-03-07 05:42:00,
2013-03-07 00:52:00,15.0,9.0,-100.00,West,262,1.0,8.0,78,0.00,,,0.00,0.000000,,2013-03-07 05:52:00,
2013-03-07 01:01:00,15.0,9.0,-100.00,West,262,1.0,8.0,78,0.00,,,0.00,0.000000,,2013-03-07 06:01:00,
2013-03-07 01:11:00,15.0,9.0,-100.00,West,262,1.0,8.0,78,0.00,,,0.00,0.000000,,2013-03-07 06:11:00,
2013-03-07 01:32:00,12.0,9.0,-100.00,WNW,284,3.0,4.0,86,0.00,,,0.00,0.000000,,2013-03-07 06:32:00,
2013-03-07 01:42:00,12.0,9.0,-100.00,WNW,284,3.0,4.0,86,0.00,,,0.00,0.000000,,2013-03-07 06:42:00,
2013-03-07 01:52:00,12.0,9.0,-100.00,WNW,284,3.0,4.0,86,0.00,,,0.00,0.000000,,2013-03-07 06:52:00,
2013-03-07 02:01:00,12.0,9.0,-100.00,WNW,284,3.0,4.0,86,0.00,,,0.00,0.000000,,2013-03-07 07:01:00,
2013-03-07 02:11:00,12.0,9.0,-100.00,WNW,284,3.0,4.0,86,0.00,,,0.00,0.000000,,2013-03-07 07:11:00,
2013-03-07 02:12:00,15.0,10.0,-100.00,WNW,301,2.0,6.0,80,0.00,,,0.00,0.000000,,2013-03-07 07:12:00,
2013-03-07 02:32:00,15.0,10.0,-100.00,WNW,301,2.0,6.0,80,0.00,,,0.00,0.000000,,2013-03-07 07:32:00,
2013-03-07 02:43:00,15.0,10.0,-100.00,WNW,301,2.0,6.0,80,0.00,,,0.00,0.000000,,2013-03-07 07:43:00,
2013-03-07 02:53:00,15.0,10.0,-100.00,WNW,301,2.0,6.0,80,0.00,,,0.00,0.000000,,2013-03-07 07:53:00,
2013-03-07 03:02:00,15.0,10.0,-100.00,WNW,301,2.0,6.0,80,0.00,,,0.00,0.000000,,2013-03-07 08:02:00,
2013-03-07 03:12:00,17.0,12.0,-100.00,WNW,292,3.0,6.0,81,0.00,,,0.00,0.000000,,2013-03-07 08:12:00,
2013-03-07 03:45:00,17.0,12.0,-100.00,WNW,292,3.0,6.0,81,0.00,,,0.00,0.000000,,2013-03-07 08:45:00,
2013-03-07 03:54:00,17.0,12.0,-100.00,WNW,292,3.0,6.0,81,0.00,,,0.00,0.000000,,2013-03-07 08:54:00,
2013-03-07 04:03:00,17.0,12.0,-100.00,WNW,292,3.0,6.0,81,0.00,,,0.00,0.000000,,2013-03-07 09:03:00,
2013-03-07 04:12:00,17.0,12.0,-100.00,WNW,289,3.0,6.0,82,0.00,,,0.00,0.000000,,2013-03-07 09:12:00,
2013-03-07 04:43:00,17.0,12.0,-100.00,WNW,289,3.0,6.0,82,0.00,,,0.00,0.000000,,2013-03-07 09:43:00,
2013-03-07 04:53:00,17.0,12.0,-100.00,WNW,289,3.0,6.0,82,0.00,,,0.00,0.000000,,2013-03-07 09:53:00,
2013-03-07 05:03:00,17.0,12.0,-100.00,WNW,289,3.0,6.0,82,0.00,,,0.00,0.000000,,2013-03-07 10:03:00,
2013-03-07 05:12:00,17.0,13.0,-100.00,WNW,289,3.0,7.0,83,0.00,,,0.00,0.000000,,2013-03-07 10:12:00,
2013-03-07 05:33:00,17.0,13.0,-100.00,WNW,289,3.0,7.0,83,0.00,,,0.00,0.000000,,2013-03-07 10:33:00,
2013-03-07 05:43:00,17.0,13.0,-100.00,WNW,289,3.0,7.0,83,0.00,,,0.00,0.000000,,2013-03-07 10:43:00,
2013-03-07 05:53:00,17.0,13.0,-100.00,WNW,289,3.0,7.0,83,0.00,,,0.00,0.000000,,2013-03-07 10:53:00,
2013-03-07 06:03:00,17.0,13.0,-100.00,WNW,289,3.0,7.0,83,0.00,,,0.00,0.000000,,2013-03-07 11:03:00,
2013-03-07 06:12:00,18.0,14.0,-100.00,NW,307,3.0,6.0,83,0.00,,,0.00,0.000000,,2013-03-07 11:12:00,
2013-03-07 06:34:00,18.0,14.0,-100.00,NW,307,3.0,6.0,83,0.00,,,0.00,0.000000,,2013-03-07 11:34:00,
2013-03-07 06:44:00,18.0,14.0,-100.00,NW,307,3.0,6.0,83,0.00,,,0.00,0.000000,,2013-03-07 11:44:00,
2013-03-07 06:54:00,18.0,14.0,-100.00,NW,307,3.0,6.0,83,0.00,,,0.00,0.000000,,2013-03-07 11:54:00,
2013-03-07 07:03:00,18.0,14.0,-100.00,NW,307,3.0,6.0,83,0.00,,,0.00,0.000000,,2013-03-07 12:03:00,
2013-03-07 07:12:00,18.0,14.0,-100.00,NW,313,4.0,7.0,85,0.00,,,0.00,0.000000,,2013-03-07 12:12:00,
2013-03-07 07:34:00,18.0,14.0,-100.00,NW,313,4.0,7.0,85,0.00,,,0.00,0.000000,,2013-03-07 12:34:00,
2013-03-07 07:43:00,18.0,14.0,-100.00,NW,313,4.0,7.0,85,0.00,,,0.00,0.000000,,2013-03-07 12:43:00,
2013-03-07 07:53:00,18.0,14.0,-100.00,NW,313,4.0,7.0,85,0.00,,,0.00,0.000000,,2013-03-07 12:53:00,
2013-03-07 08:02:00,18.0,14.0,-100.00,NW,313,4.0,7.0,85,0.00,,,0.00,0.000000,,2013-03-07 13:02:00,
2013-03-07 09:12:00,21.0,14.0,-100.00,North,350,4.0,7.0,75,-99.99,,,0.00,112.000000,,2013-03-07 14:12:00,
2013-03-07 09:34:00,21.0,14.0,-100.00,North,350,4.0,7.0,75,-99.99,,,0.00,112.000000,,2013-03-07 14:34:00,
2013-03-07 09:43:00,21.0,14.0,-100.00,North,350,4.0,7.0,75,-99.99,,,0.00,112.000000,,2013-03-07 14:43:00,
2013-03-07 09:54:00,21.0,14.0,-100.00,North,350,4.0,7.0,75,-99.99,,,0.00,112.000000,,2013-03-07 14:54:00,
2013-03-07 10:03:00,21.0,14.0,-100.00,North,350,4.0,7.0,75,-99.99,,,0.00,112.000000,,2013-03-07 15:03:00,
2013-03-07 10:12:00,22.0,10.0,-100.00,North,358,5.0,12.0,59,0.00,,,0.00,273.000000,,2013-03-07 15:12:00,
2013-03-07 10:33:00,22.0,10.0,-100.00,North,358,5.0,12.0,59,0.00,,,0.00,273.000000,,2013-03-07 15:33:00,
2013-03-07 10:43:00,22.0,10.0,-100.00,North,358,5.0,12.0,59,0.00,,,0.00,273.000000,,2013-03-07 15:43:00,
2013-03-07 10:53:00,22.0,10.0,-100.00,North,358,5.0,12.0,59,0.00,,,0.00,273.000000,,2013-03-07 15:53:00,
2013-03-07 11:02:00,22.0,10.0,-100.00,North,358,5.0,12.0,59,0.00,,,0.00,273.000000,,2013-03-07 16:02:00,
2013-03-07 11:12:00,27.0,12.0,-100.00,NNE,16,3.0,9.0,53,0.00,,,0.00,485.000000,,2013-03-07 16:12:00,
2013-03-07 11:43:00,27.0,12.0,-100.00,NNE,16,3.0,9.0,53,0.00,,,0.00,485.000000,,2013-03-07 16:43:00,
2013-03-07 11:53:00,27.0,12.0,-100.00,NNE,16,3.0,9.0,53,0.00,,,0.00,485.000000,,2013-03-07 16:53:00,
2013-03-07 12:02:00,27.0,12.0,-100.00,NNE,16,3.0,9.0,53,0.00,,,0.00,485.000000,,2013-03-07 17:02:00,
2013-03-07 12:12:00,25.0,11.0,-100.00,North,356,4.0,10.0,55,0.00,,,0.00,422.000000,,2013-03-07 17:12:00,
2013-03-07 12:44:00,25.0,11.0,-100.00,North,356,4.0,10.0,55,0.00,,,0.00,422.000000,,2013-03-07 17:44:00,
2013-03-07 12:54:00,25.0,11.0,-100.00,North,356,4.0,10.0,55,0.00,,,0.00,422.000000,,2013-03-07 17:54:00,
2013-03-07 13:03:00,25.0,11.0,-100.00,North,356,4.0,10.0,55,0.00,,,0.00,422.000000,,2013-03-07 18:03:00,
2013-03-07 13:12:00,26.0,12.0,-100.00,WNW,289,4.0,13.0,55,0.00,,,0.00,403.000000,,2013-03-07 18:12:00,
2013-03-07 13:32:00,26.0,12.0,-100.00,WNW,289,4.0,13.0,55,0.00,,,0.00,403.000000,,2013-03-07 18:32:00,
2013-03-07 13:42:00,26.0,12.0,-100.00,WNW,289,4.0,13.0,55,0.00,,,0.00,403.000000,,2013-03-07 18:42:00,
2013-03-07 13:53:00,26.0,12.0,-100.00,WNW,289,4.0,13.0,55,0.00,,,0.00,403.000000,,2013-03-07 18:53:00,
2013-03-07 14:03:00,26.0,12.0,-100.00,WNW,289,4.0,13.0,55,0.00,,,0.00,403.000000,,2013-03-07 19:03:00,
2013-03-07 14:12:00,30.0,12.0,-100.00,NE,53,3.0,9.0,47,0.00,,,0.00,665.000000,,2013-03-07 19:12:00,
2013-03-07 14:35:00,30.0,12.0,-100.00,NE,53,3.0,9.0,47,0.00,,,0.00,665.000000,,2013-03-07 19:35:00,
2013-03-07 14:44:00,30.0,12.0,-100.00,NE,53,3.0,9.0,47,0.00,,,0.00,665.000000,,2013-03-07 19:44:00,
2013-03-07 14:53:00,30.0,12.0,-100.00,NE,53,3.0,9.0,47,0.00,,,0.00,665.000000,,2013-03-07 19:53:00,
2013-03-07 15:02:00,30.0,12.0,-100.00,NE,53,3.0,9.0,47,0.00,,,0.00,665.000000,,2013-03-07 20:02:00,
2013-03-07 15:12:00,30.0,13.0,-100.00,North,357,5.0,11.0,48,0.00,,,0.00,683.000000,,2013-03-07 20:12:00,
2013-03-07 15:43:00,30.0,13.0,-100.00,North,357,5.0,11.0,48,0.00,,,0.00,683.000000,,2013-03-07 20:43:00,
2013-03-07 15:54:00,30.0,13.0,-100.00,North,357,5.0,11.0,48,0.00,,,0.00,683.000000,,2013-03-07 20:54:00,
2013-03-07 16:02:00,30.0,13.0,-100.00,North,357,5.0,11.0,48,0.00,,,0.00,683.000000,,2013-03-07 21:02:00,
2013-03-07 16:12:00,29.0,15.0,-100.00,ENE,71,5.0,10.0,55,0.00,,,0.00,481.000000,,2013-03-07 21:12:00,
2013-03-07 16:43:00,29.0,15.0,-100.00,ENE,71,5.0,10.0,55,0.00,,,0.00,481.000000,,2013-03-07 21:43:00,
2013-03-07 16:53:00,29.0,15.0,-100.00,ENE,71,5.0,10.0,55,0.00,,,0.00,481.000000,,2013-03-07 21:53:00,
2013-03-07 17:02:00,29.0,15.0,-100.00,ENE,71,5.0,10.0,55,0.00,,,0.00,481.000000,,2013-03-07 22:02:00,
2013-03-07 17:12:00,28.0,16.0,-100.00,NE,56,4.0,10.0,59,0.00,,,0.00,304.000000,,2013-03-07 22:12:00,
2013-03-07 17:33:00,28.0,16.0,-100.00,NE,56,4.0,10.0,59,0.00,,,0.00,304.000000,,2013-03-07 22:33:00,
2013-03-07 17:54:00,28.0,16.0,-100.00,NE,56,4.0,10.0,59,0.00,,,0.00,304.000000,,2013-03-07 22:54:00,
2013-03-07 18:03:00,28.0,16.0,-100.00,NE,56,4.0,10.0,59,0.00,,,0.00,304.000000,,2013-03-07 23:03:00,
2013-03-07 18:12:00,26.0,17.0,-100.00,NE,51,3.0,9.0,67,0.00,,,0.00,140.000000,,2013-03-07 23:12:00,
2013-03-07 18:44:00,26.0,17.0,-100.00,NE,51,3.0,9.0,67,0.00,,,0.00,140.000000,,2013-03-07 23:44:00,
2013-03-07 18:54:00,26.0,17.0,-100.00,NE,51,3.0,9.0,67,0.00,,,0.00,140.000000,,2013-03-07 23:54:00,
2013-03-07 19:04:00,26.0,17.0,-100.00,NE,51,3.0,9.0,67,0.00,,,0.00,140.000000,,2013-03-08 00:04:00,
2013-03-07 19:35:00,23.0,16.0,-100.00,ENE,66,3.0,9.0,74,0.00,,,0.00,15.000000,,2013-03-08 00:35:00,
2013-03-07 19:44:00,23.0,16.0,-100.00,ENE,66,3.0,9.0,74,0.00,,,0.00,15.000000,,2013-03-08 00:44:00,
2013-03-07 19:54:00,23.0,16.0,-100.00,ENE,66,3.0,9.0,74,0.00,,,0.00,15.000000,,2013-03-08 00:54:00,
2013-03-07 20:02:00,23.0,16.0,-100.00,ENE,66,3.0,9.0,74,0.00,,,0.00,15.000000,,2013-03-08 01:02:00,
2013-03-07 20:11:00,23.0,16.0,-100.00,ENE,66,3.0,9.0,74,0.00,,,0.00,15.000000,,2013-03-08 01:11:00,
2013-03-07 20:33:00,22.0,16.0,-100.00,ENE,78,3.0,6.0,78,0.00,,,0.00,0.000000,,2013-03-08 01:33:00,
2013-03-07 20:42:00,22.0,16.0,-100.00,ENE,78,3.0,6.0,78,0.00,,,0.00,0.000000,,2013-03-08 01:42:00,
2013-03-07 20:52:00,22.0,16.0,-100.00,ENE,78,3.0,6.0,78,0.00,,,0.00,0.000000,,2013-03-08 01:52:00,
2013-03-07 21:01:00,22.0,16.0,-100.00,ENE,78,3.0,6.0,78,0.00,,,0.00,0.000000,,2013-03-08 02:01:00,
2013-03-07 21:11:00,22.0,16.0,-100.00,ENE,78,3.0,6.0,78,0.00,,,0.00,0.000000,,2013-03-08 02:11:00,
2013-03-07 21:12:00,18.0,14.0,-100.00,ESE,108,0.0,4.0,85,0.00,,,0.00,0.000000,,2013-03-08 02:12:00,
2013-03-07 21:32:00,18.0,14.0,-100.00,ESE,108,0.0,4.0,85,0.00,,,0.00,0.000000,,2013-03-08 02:32:00,
2013-03-07 21:42:00,18.0,14.0,-100.00,ESE,108,0.0,4.0,85,0.00,,,0.00,0.000000,,2013-03-08 02:42:00,
2013-03-07 21:53:00,18.0,14.0,-100.00,ESE,108,0.0,4.0,85,0.00,,,0.00,0.000000,,2013-03-08 02:53:00,
2013-03-07 22:02:00,18.0,14.0,-100.00,ESE,108,0.0,4.0,85,0.00,,,0.00,0.000000,,2013-03-08 03:02:00,
2013-03-07 22:33:00,14.0,11.0,-100.00,South,184,2.0,4.0,89,0.00,,,0.00,0.000000,,2013-03-08 03:33:00,
2013-03-07 22:43:00,14.0,11.0,-100.00,South,184,2.0,4.0,89,0.00,,,0.00,0.000000,,2013-03-08 03:43:00,
2013-03-07 22:53:00,14.0,11.0,-100.00,South,184,2.0,4.0,89,0.00,,,0.00,0.000000,,2013-03-08 03:53:00,
2013-03-07 23:01:00,14.0,11.0,-100.00,South,184,2.0,4.0,89,0.00,,,0.00,0.000000,,2013-03-08 04:01:00,
2013-03-07 23:11:00,14.0,11.0,-100.00,South,184,2.0,4.0,89,0.00,,,0.00,0.000000,,2013-03-08 04:11:00,
2013-03-07 23:12:00,17.0,15.0,-100.00,SSW,205,2.0,4.0,91,0.00,,,0.00,0.000000,,2013-03-08 04:12:00,
2013-03-07 23:32:00,17.0,15.0,-100.00,SSW,205,2.0,4.0,91,0.00,,,0.00,0.000000,,2013-03-08 04:32:00,
2013-03-07 23:42:00,17.0,15.0,-100.00,SSW,205,2.0,4.0,91,0.00,,,0.00,0.000000,,2013-03-08 04:42:00,
2013-03-07 23:52:00,17.0,15.0,-100.00,SSW,205,2.0,4.0,91,0.00,,,0.00,0.000000,,2013-03-08 04:52:00,